Time;durP1;ratioP1;P1;durP2;ratioP2;P2;SDS_P1;SDS_P2;PMS_P1;PMS_P2;Temp;Humidity;BMP_temperature;BMP_pressure;BME280_temperature;BME280_humidity;BME280_pressure;Samples;Min_cycle;Max_cycle;Signal;HPM_P1;HPM_P2
2021/05/28 00:01:22;;;;;;;14.45;9.18;;;;;;;16.54;79.80;93625.91;4962253;28;20420;-87
2021/05/28 00:03:48;;;;;;;11.93;9.88;;;;;;;16.29;79.99;93593.03;4957935;28;20050;-86
2021/05/28 00:06:14;;;;;;;12.07;9.50;;;;;;;16.54;79.97;93625.91;4951337;28;20066;-87
2021/05/28 00:08:39;;;;;;;16.40;10.73;;;;;;;16.55;80.11;93624.03;4968667;28;20126;-87
2021/05/28 00:11:05;;;;;;;9.18;8.23;;;;;;;16.45;80.19;93614.53;4940142;28;20050;-87
2021/05/28 00:13:31;;;;;;;13.43;9.48;;;;;;;16.24;80.46;93597.78;4966239;28;20129;-86
2021/05/28 00:15:57;;;;;;;15.45;9.65;;;;;;;16.33;80.24;93606.50;4961550;28;20038;-86
2021/05/28 00:18:22;;;;;;;10.70;9.23;;;;;;;16.09;80.62;93590.41;4981377;28;20391;-86
2021/05/28 00:20:48;;;;;;;13.45;10.23;;;;;;;16.23;81.06;93596.22;4974749;28;20455;-87
2021/05/28 00:23:14;;;;;;;40.35;27.10;;;;;;;16.45;81.16;93636.66;4968042;28;20085;-87
2021/05/28 00:25:39;;;;;;;52.25;36.97;;;;;;;16.40;81.10;93620.09;4958912;28;20030;-87
2021/05/28 00:28:04;;;;;;;19.90;16.33;;;;;;;16.36;80.14;93595.19;4963018;28;20038;-87
2021/05/28 00:30:30;;;;;;;20.17;17.73;;;;;;;16.26;79.97;93568.94;4960936;28;20034;-86
2021/05/28 00:32:55;;;;;;;18.15;15.80;;;;;;;16.23;79.61;93550.91;4955943;28;20050;-86
2021/05/28 00:35:21;;;;;;;22.27;19.65;;;;;;;16.22;80.15;93558.16;4972051;28;20053;-86
2021/05/28 00:37:47;;;;;;;20.67;16.63;;;;;;;16.21;80.09;93551.25;4958765;28;20023;-86
2021/05/28 00:40:15;;;;;;;16.30;14.02;;;;;;;16.23;80.56;93572.25;4980871;28;20014;-87
2021/05/28 00:42:43;;;;;;;16.70;14.68;;;;;;;16.09;80.32;93563.75;4957959;28;20661;-87
2021/05/28 00:45:09;;;;;;;15.70;13.88;;;;;;;15.92;80.59;93538.84;4969925;28;20043;-87
2021/05/28 00:47:35;;;;;;;17.08;11.77;;;;;;;15.94;80.23;93531.28;4975944;28;20045;-89
2021/05/28 00:50:05;;;;;;;13.15;10.70;;;;;;;16.16;79.74;93553.34;4971589;28;20042;-87
2021/05/28 00:52:31;;;;;;;11.85;10.48;;;;;;;16.04;79.80;93562.84;4973653;28;20039;-87
2021/05/28 00:54:57;;;;;;;12.20;10.85;;;;;;;15.81;80.08;93553.66;4975183;28;20038;-88
2021/05/28 00:57:24;;;;;;;20.45;12.05;;;;;;;15.98;80.49;93566.81;4954840;28;20408;-85
2021/05/28 00:59:54;;;;;;;14.20;11.90;;;;;;;15.98;80.98;93566.03;4975782;28;20050;-89
2021/05/28 01:02:20;;;;;;;14.60;13.02;;;;;;;15.93;81.20;93556.34;4978848;28;20041;-87
2021/05/28 01:04:46;;;;;;;15.68;13.93;;;;;;;15.86;81.58;93542.03;4959726;28;20026;-87
2021/05/28 01:07:11;;;;;;;14.10;12.70;;;;;;;15.92;81.40;93552.16;4981551;28;20080;-86
2021/05/28 01:09:37;;;;;;;15.60;13.15;;;;;;;15.89;81.50;93550.13;4959622;28;20073;-86
2021/05/28 01:12:02;;;;;;;13.68;12.25;;;;;;;15.93;82.03;93555.59;4976434;28;20045;-87
2021/05/28 01:14:28;;;;;;;16.63;13.35;;;;;;;16.02;81.81;93549.09;4975487;28;20125;-86
2021/05/28 01:16:53;;;;;;;19.20;13.63;;;;;;;16.05;81.60;93552.97;4974579;28;20041;-85
2021/05/28 01:19:21;;;;;;;16.23;13.52;;;;;;;16.11;82.07;93573.00;4958990;28;20122;-85
2021/05/28 01:21:47;;;;;;;19.08;12.27;;;;;;;16.02;82.02;93570.41;4957511;28;20137;-87
2021/05/28 01:24:12;;;;;;;14.93;11.48;;;;;;;15.88;82.08;93542.47;4975862;28;20035;-87
2021/05/28 01:26:38;;;;;;;15.98;11.52;;;;;;;15.93;81.62;93553.69;4971234;28;20053;-87
2021/05/28 01:29:04;;;;;;;17.02;12.35;;;;;;;16.12;81.76;93565.78;4965007;28;20042;-87
2021/05/28 01:31:30;;;;;;;15.73;11.82;;;;;;;15.90;80.91;93522.38;4960089;28;20030;-87
2021/05/28 01:33:58;;;;;;;14.27;10.77;;;;;;;16.20;80.81;93578.22;4977539;28;20491;-88
2021/05/28 01:36:24;;;;;;;16.90;11.32;;;;;;;16.03;80.40;93544.50;4976242;28;20181;-87
2021/05/28 01:38:49;;;;;;;14.93;10.10;;;;;;;16.16;80.25;93556.00;4976779;28;20046;-87
2021/05/28 01:41:15;;;;;;;14.10;11.18;;;;;;;16.13;80.80;93568.09;4957924;28;20046;-87
2021/05/28 01:43:40;;;;;;;11.65;9.95;;;;;;;16.11;80.08;93550.88;4975128;28;20044;-87
2021/05/28 01:46:06;;;;;;;15.35;10.63;;;;;;;15.92;80.20;93540.72;4986403;28;20026;-88
2021/05/28 01:48:31;;;;;;;11.30;9.35;;;;;;;15.94;79.86;93525.94;4962068;28;20722;-87
2021/05/28 01:50:57;;;;;;;13.55;10.18;;;;;;;15.93;80.30;93543.03;4962555;28;20667;-86
2021/05/28 01:53:24;;;;;;;15.98;11.20;;;;;;;16.08;80.26;93554.22;4979316;28;20499;-86
2021/05/28 01:55:51;;;;;;;21.75;11.38;;;;;;;15.69;81.02;93497.66;4977181;28;20041;-87
2021/05/28 01:58:20;;;;;;;14.10;10.90;;;;;;;15.80;81.13;93527.34;4983388;28;20133;-87
2021/05/28 02:00:47;;;;;;;12.95;10.95;;;;;;;15.90;81.77;93556.25;4980070;28;20034;-86
2021/05/28 02:03:13;;;;;;;13.40;12.00;;;;;;;15.64;82.33;93543.13;4981427;28;20108;-86
2021/05/28 02:05:39;;;;;;;16.08;11.60;;;;;;;15.54;82.74;93548.88;4980528;28;20096;-86
2021/05/28 02:08:05;;;;;;;16.27;12.35;;;;;;;15.56;82.73;93558.09;4983302;28;20405;-86
2021/05/28 02:10:32;;;;;;;21.08;12.35;;;;;;;15.39;83.21;93528.91;4983569;28;20061;-86
2021/05/28 02:12:58;;;;;;;23.35;13.05;;;;;;;15.38;83.62;93524.66;4943342;28;20043;-87
2021/05/28 02:15:23;;;;;;;14.05;11.35;;;;;;;15.33;83.54;93502.78;4969617;28;20057;-87
2021/05/28 02:17:50;;;;;;;16.35;12.65;;;;;;;15.50;83.49;93516.72;4961471;28;20047;-86
2021/05/28 02:20:16;;;;;;;14.85;12.43;;;;;;;15.47;83.42;93505.97;4958932;28;20408;-86
2021/05/28 02:22:41;;;;;;;16.25;11.50;;;;;;;15.61;83.11;93511.81;4958051;28;20026;-86
2021/05/28 02:25:09;;;;;;;16.67;13.00;;;;;;;15.78;83.10;93532.22;4977270;28;20117;-86
2021/05/28 02:27:35;;;;;;;14.65;11.93;;;;;;;15.54;82.33;93484.94;4975267;28;20943;-86
2021/05/28 02:30:00;;;;;;;14.55;10.98;;;;;;;15.85;82.50;93527.91;4982589;28;20502;-85
2021/05/28 02:32:27;;;;;;;14.90;10.45;;;;;;;15.79;81.97;93499.91;4966343;28;20066;-86
2021/05/28 02:34:53;;;;;;;15.52;11.27;;;;;;;15.81;81.91;93496.94;4979562;28;20052;-86
2021/05/28 02:37:18;;;;;;;16.10;11.57;;;;;;;15.65;82.00;93475.44;4967813;28;20663;-85
2021/05/28 02:39:44;;;;;;;14.25;11.00;;;;;;;15.72;81.62;93486.34;4959663;28;20759;-86
2021/05/28 02:42:10;;;;;;;17.40;11.43;;;;;;;15.75;81.53;93488.34;4957849;28;20039;-86
2021/05/28 02:44:36;;;;;;;13.95;10.98;;;;;;;15.99;81.49;93532.97;4965450;28;20042;-86
2021/05/28 02:47:01;;;;;;;16.40;11.60;;;;;;;15.90;81.34;93519.72;4961130;28;20038;-86
2021/05/28 02:49:27;;;;;;;12.80;10.48;;;;;;;15.81;81.28;93505.69;4960462;28;20022;-86
2021/05/28 02:51:52;;;;;;;16.30;11.38;;;;;;;15.80;81.33;93498.81;4981343;28;20043;-86
2021/05/28 02:54:18;;;;;;;16.95;11.95;;;;;;;15.97;81.06;93514.66;4977520;28;20145;-87
2021/05/28 02:56:43;;;;;;;13.50;11.68;;;;;;;16.14;81.40;93539.56;4981328;28;20038;-86
2021/05/28 02:59:09;;;;;;;15.40;11.07;;;;;;;15.98;81.20;93518.06;4963412;28;20106;-86
2021/05/28 03:01:34;;;;;;;14.93;11.27;;;;;;;16.06;80.61;93532.44;4977418;28;20031;-87
2021/05/28 03:03:59;;;;;;;16.10;11.00;;;;;;;16.06;80.31;93527.09;4962486;28;20526;-87
2021/05/28 03:06:25;;;;;;;12.10;10.55;;;;;;;16.06;80.97;93521.78;4974382;28;20491;-87
2021/05/28 03:08:50;;;;;;;15.18;11.32;;;;;;;16.14;80.54;93540.34;4980930;28;20030;-87
2021/05/28 03:11:16;;;;;;;12.60;10.50;;;;;;;16.24;80.65;93561.25;4957145;28;20070;-87
2021/05/28 03:13:41;;;;;;;13.63;10.07;;;;;;;16.22;81.17;93557.38;4962238;28;20023;-86
2021/05/28 03:16:07;;;;;;;14.73;11.18;;;;;;;16.00;80.85;93523.84;4979681;28;20065;-86
2021/05/28 03:18:51;;;;;;;14.38;9.75;;;;;;;16.17;80.96;93553.03;4960191;28;20047;-86
2021/05/28 03:24:01;;;;;;;12.65;11.35;;;;;;;16.39;80.93;93562.50;4972103;28;20360;-86
2021/05/28 03:26:28;;;;;;;15.55;10.52;;;;;;;16.35;80.43;93530.41;4970810;28;20129;-86
2021/05/28 03:28:55;;;;;;;18.58;10.80;;;;;;;16.19;80.37;93520.69;4961134;28;20523;-86
2021/05/28 03:31:22;;;;;;;12.00;9.27;;;;;;;16.18;80.11;93519.13;4982075;28;20499;-85
2021/05/28 03:33:48;;;;;;;11.57;9.57;;;;;;;16.48;80.41;93560.53;4958700;28;20109;-86
2021/05/28 03:36:15;;;;;;;16.13;11.68;;;;;;;16.41;80.29;93544.31;4957919;28;20130;-87
2021/05/28 03:38:41;;;;;;;15.82;10.68;;;;;;;16.32;80.25;93543.63;4966629;28;20053;-87
2021/05/28 03:41:07;;;;;;;13.48;10.75;;;;;;;16.43;81.04;93579.41;4974133;28;20043;-88
2021/05/28 03:43:34;;;;;;;11.75;10.55;;;;;;;16.50;81.24;93582.34;4954119;28;20485;-87
2021/05/28 03:46:00;;;;;;;14.90;10.27;;;;;;;16.47;81.24;93569.63;4959810;28;20066;-86
2021/05/28 03:48:25;;;;;;;15.00;10.30;;;;;;;16.43;80.98;93566.84;4954191;28;20125;-86
2021/05/28 03:50:51;;;;;;;15.95;10.77;;;;;;;16.58;81.14;93594.81;4959231;28;20516;-87
2021/05/28 03:53:16;;;;;;;17.50;11.60;;;;;;;16.56;81.66;93583.69;4956838;28;20047;-87
2021/05/28 03:55:41;;;;;;;13.98;11.07;;;;;;;16.73;81.22;93604.84;4954328;28;20034;-87
2021/05/28 03:58:07;;;;;;;13.52;11.48;;;;;;;16.48;81.10;93557.88;4979203;28;20108;-87
2021/05/28 04:00:33;;;;;;;14.55;10.90;;;;;;;16.60;81.64;93570.50;4956367;28;20046;-87
2021/05/28 04:03:01;;;;;;;12.30;10.90;;;;;;;16.94;81.24;93615.47;4969759;28;20725;-86
2021/05/28 04:05:27;;;;;;;19.33;13.32;;;;;;;17.00;81.07;93608.03;4974270;28;20082;-87
2021/05/28 04:07:52;;;;;;;15.70;12.85;;;;;;;16.86;81.59;93569.06;4977896;28;20538;-87
2021/05/28 04:10:17;;;;;;;14.90;11.43;;;;;;;17.05;81.64;93579.22;4978179;28;20034;-86
2021/05/28 04:12:43;;;;;;;12.65;11.30;;;;;;;17.02;80.53;93557.72;4975713;28;20137;-86
2021/05/28 04:15:10;;;;;;;13.48;11.38;;;;;;;17.09;80.21;93561.41;4975619;28;20545;-87
2021/05/28 04:17:36;;;;;;;15.50;12.77;;;;;;;17.10;80.18;93544.28;4950365;28;20622;-87
2021/05/28 04:20:03;;;;;;;15.38;11.35;;;;;;;17.09;79.89;93536.59;4959179;28;20134;-86
2021/05/28 04:22:29;;;;;;;13.10;11.70;;;;;;;17.17;78.66;93538.38;4976964;28;20298;-86
2021/05/28 04:24:54;;;;;;;15.90;10.65;;;;;;;17.37;78.80;93556.16;4977656;28;21064;-86
2021/05/28 04:27:20;;;;;;;17.98;12.02;;;;;;;17.20;78.93;93535.78;4974680;28;20617;-86
2021/05/28 04:29:45;;;;;;;15.05;12.23;;;;;;;17.34;78.73;93556.84;4977603;28;20128;-86
2021/05/28 04:32:11;;;;;;;18.40;12.27;;;;;;;17.41;79.06;93581.06;4974364;28;20050;-86
2021/05/28 04:34:37;;;;;;;19.77;14.73;;;;;;;17.22;79.27;93554.16;4978499;28;20014;-86
2021/05/28 04:37:03;;;;;;;20.92;13.80;;;;;;;17.08;78.91;93527.81;4963282;28;20026;-86
2021/05/28 04:39:28;;;;;;;21.00;13.43;;;;;;;17.23;79.54;93553.06;4976889;28;20057;-86
2021/05/28 04:41:55;;;;;;;17.33;12.73;;;;;;;17.28;79.25;93552.81;4976381;28;20069;-86
2021/05/28 04:44:20;;;;;;;17.13;12.35;;;;;;;17.27;79.26;93572.63;4976435;28;20039;-86
2021/05/28 04:46:46;;;;;;;15.18;13.05;;;;;;;17.24;79.49;93570.63;4963533;28;20026;-85
2021/05/28 04:49:12;;;;;;;30.98;22.35;;;;;;;16.98;80.42;93540.81;4977760;28;20105;-85
2021/05/28 04:51:37;;;;;;;20.88;16.25;;;;;;;17.08;80.02;93546.50;4960796;28;20049;-87
2021/05/28 04:54:04;;;;;;;20.73;14.90;;;;;;;17.31;79.87;93560.16;4970078;28;20523;-86
2021/05/28 04:56:29;;;;;;;16.80;12.52;;;;;;;17.64;78.45;93584.84;4977320;28;20574;-85
2021/05/28 04:58:55;;;;;;;20.80;15.73;;;;;;;17.36;76.95;93546.56;4948906;28;20364;-86
2021/05/28 05:01:20;;;;;;;21.33;19.13;;;;;;;17.80;77.82;93589.50;4941891;28;20130;-86
2021/05/28 05:03:46;;;;;;;19.77;14.50;;;;;;;18.19;75.77;93569.97;4958520;28;20050;-86
2021/05/28 05:06:12;;;;;;;25.15;13.55;;;;;;;18.67;74.38;93579.69;4970107;28;20054;-86
2021/05/28 05:08:37;;;;;;;17.17;12.43;;;;;;;19.07;72.31;93590.25;4979379;28;20034;-86
2021/05/28 05:11:03;;;;;;;16.83;11.85;;;;;;;19.18;71.62;93596.63;4960946;28;20058;-87
2021/05/28 05:13:36;;;;;;;22.25;12.55;;;;;;;18.99;71.55;93553.72;4959966;28;20058;-86
2021/05/28 05:16:03;;;;;;;20.83;13.25;;;;;;;19.20;71.16;93596.31;4944981;28;20042;-86
2021/05/28 05:18:28;;;;;;;18.17;12.85;;;;;;;19.03;71.50;93560.69;4978127;28;20045;-86
2021/05/28 05:20:53;;;;;;;14.55;11.85;;;;;;;18.99;70.49;93561.75;4966331;28;20043;-87
2021/05/28 05:23:19;;;;;;;19.27;13.20;;;;;;;19.28;70.51;93587.28;4956595;28;20036;-86
2021/05/28 05:25:45;;;;;;;19.13;11.90;;;;;;;20.01;69.40;93613.44;4958892;28;20519;-86
2021/05/28 05:28:12;;;;;;;18.25;13.18;;;;;;;20.18;67.75;93603.06;4958826;28;20026;-86
2021/05/28 05:30:37;;;;;;;20.35;12.02;;;;;;;20.67;67.30;93618.63;4958896;28;20041;-87
2021/05/28 05:33:03;;;;;;;14.77;10.55;;;;;;;21.38;65.02;93576.88;4956648;28;20042;-86
2021/05/28 05:35:28;;;;;;;11.93;8.00;;;;;;;22.92;58.96;93587.28;4962335;28;20427;-88
2021/05/28 05:37:53;;;;;;;9.65;5.47;;;;;;;24.12;54.56;93619.81;4974802;28;20050;-86
2021/05/28 05:40:19;;;;;;;8.23;5.80;;;;;;;24.45;52.59;93610.75;4960821;28;20070;-88
2021/05/28 05:42:46;;;;;;;7.03;4.18;;;;;;;24.18;50.92;93615.66;4956662;28;20105;-88
2021/05/28 05:45:13;;;;;;;7.20;4.40;;;;;;;24.00;51.15;93585.81;4957120;28;20053;-87
2021/05/28 05:47:39;;;;;;;6.28;3.90;;;;;;;24.95;50.61;93614.41;4949824;28;20043;-86
2021/05/28 05:50:05;;;;;;;4.40;3.53;;;;;;;25.72;48.34;93608.31;4955293;28;20058;-87
2021/05/28 05:52:31;;;;;;;5.10;3.20;;;;;;;26.03;47.57;93614.84;4976813;28;20026;-87
2021/05/28 05:54:56;;;;;;;3.67;3.15;;;;;;;26.61;45.69;93597.25;4971638;28;20056;-87
2021/05/28 05:57:22;;;;;;;6.43;2.78;;;;;;;27.03;44.22;93572.66;4956765;28;20042;-87
2021/05/28 05:59:47;;;;;;;4.82;2.53;;;;;;;28.18;40.90;93574.03;4970046;28;20089;-87
2021/05/28 06:02:13;;;;;;;3.05;2.13;;;;;;;29.54;38.36;93604.53;4967654;28;20070;-89
2021/05/28 06:04:38;;;;;;;5.05;2.22;;;;;;;29.57;37.06;93597.47;4953364;28;20027;-85
2021/05/28 06:07:07;;;;;;;5.07;2.13;;;;;;;28.58;37.88;93594.16;4974274;28;20494;-87
2021/05/28 06:09:33;;;;;;;2.35;1.92;;;;;;;28.08;39.29;93580.31;4972039;28;20514;-84
2021/05/28 06:11:59;;;;;;;8.43;2.45;;;;;;;28.09;39.37;93584.59;4950371;28;20051;-86
2021/05/28 06:14:25;;;;;;;3.13;2.78;;;;;;;28.44;39.49;93605.22;4958468;28;20412;-86
2021/05/28 06:16:51;;;;;;;3.20;2.22;;;;;;;29.70;37.48;93596.50;4970717;28;20113;-88
2021/05/28 06:19:16;;;;;;;5.35;2.40;;;;;;;30.18;36.01;93580.91;4975371;28;20548;-87
2021/05/28 06:21:42;;;;;;;8.02;1.92;;;;;;;31.26;34.91;93607.16;4968456;28;20053;-85
2021/05/28 06:24:08;;;;;;;3.63;1.90;;;;;;;32.11;33.46;93591.50;4968590;28;20056;-86
2021/05/28 06:26:34;;;;;;;4.68;1.80;;;;;;;33.44;31.27;93606.53;4972905;28;20069;-85
2021/05/28 06:29:05;;;;;;;5.78;2.25;;;;;;;34.13;30.75;93612.16;4972658;28;20042;-87
2021/05/28 06:31:31;;;;;;;2.75;1.80;;;;;;;34.48;28.96;93577.28;4979290;28;20026;-86
2021/05/28 06:34:00;;;;;;;6.18;1.60;;;;;;;35.06;28.14;93608.50;4973444;28;20050;-85
2021/05/28 06:36:26;;;;;;;3.55;1.48;;;;;;;35.53;28.30;93611.03;4960850;28;20530;-86
2021/05/28 06:38:51;;;;;;;2.35;1.48;;;;;;;35.94;26.81;93595.31;4963000;28;20050;-84
2021/05/28 06:41:17;;;;;;;3.92;1.98;;;;;;;36.36;26.81;93588.03;4955397;28;20085;-84
2021/05/28 06:43:42;;;;;;;3.63;1.20;;;;;;;36.23;26.74;93617.69;4969822;28;20030;-82
2021/05/28 06:46:08;;;;;;;3.33;1.95;;;;;;;35.19;27.58;93580.97;4958930;28;20036;-83
2021/05/28 06:48:33;;;;;;;5.25;1.75;;;;;;;34.63;28.31;93595.53;4951694;28;20055;-86
2021/05/28 06:50:59;;;;;;;2.80;1.70;;;;;;;34.52;28.42;93591.63;4970488;28;20038;-83
2021/05/28 06:53:24;;;;;;;2.72;1.50;;;;;;;34.16;29.05;93616.78;4959369;28;20074;-85
2021/05/28 06:55:50;;;;;;;1.95;1.80;;;;;;;33.47;30.16;93624.84;4947959;28;20161;-85
2021/05/28 06:58:16;;;;;;;6.28;2.20;;;;;;;32.33;31.45;93601.88;4954956;28;20110;-85
2021/05/28 07:00:42;;;;;;;3.50;2.42;;;;;;;32.03;32.67;93611.97;4967442;28;20042;-84
2021/05/28 07:03:08;;;;;;;4.82;2.08;;;;;;;32.36;32.04;93579.13;4919842;28;20095;-86
2021/05/28 07:05:33;;;;;;;2.25;1.40;;;;;;;33.48;30.14;93601.69;4953158;28;20050;-86
2021/05/28 07:08:06;;;;;;;5.70;1.75;;;;;;;33.75;29.28;93563.69;4940090;28;20039;-85
2021/05/28 07:10:32;;;;;;;2.92;1.50;;;;;;;34.03;29.00;93611.31;4948596;28;20141;-84
2021/05/28 07:12:58;;;;;;;3.70;1.40;;;;;;;33.50;29.97;93621.22;4952451;28;20522;-89
2021/05/28 07:15:23;;;;;;;2.75;1.80;;;;;;;32.48;30.46;93590.13;4966473;28;20046;-85
2021/05/28 07:17:49;;;;;;;4.20;1.50;;;;;;;32.23;30.88;93611.91;4969941;28;20046;-85
2021/05/28 07:20:15;;;;;;;1.80;1.70;;;;;;;30.74;31.29;93614.50;4969217;28;20059;-85
2021/05/28 07:22:41;;;;;;;2.40;2.20;;;;;;;30.19;32.94;93618.63;4954274;28;20081;-85
2021/05/28 07:25:06;;;;;;;2.78;2.38;;;;;;;29.76;33.16;93612.38;4955010;28;20041;-85
2021/05/28 07:27:32;;;;;;;4.47;1.90;;;;;;;29.16;33.75;93584.09;4951087;28;20404;-84
2021/05/28 07:30:00;;;;;;;2.97;2.20;;;;;;;29.06;34.08;93628.53;4955411;28;20050;-83
2021/05/28 07:32:26;;;;;;;4.55;2.72;;;;;;;29.23;34.62;93611.19;4929851;28;20086;-83
2021/05/28 07:34:52;;;;;;;3.13;2.60;;;;;;;29.27;33.54;93628.25;4947862;28;20031;-84
2021/05/28 07:37:17;;;;;;;6.05;2.90;;;;;;;28.80;34.62;93611.00;4977113;28;20022;-84
2021/05/28 07:39:43;;;;;;;5.03;4.63;;;;;;;27.85;36.09;93629.06;4972472;28;20042;-86
2021/05/28 07:42:08;;;;;;;6.43;5.30;;;;;;;26.72;38.06;93635.94;4970116;28;20158;-82
2021/05/28 07:44:37;;;;;;;5.75;5.05;;;;;;;26.02;39.79;93616.00;4970017;28;20050;-86
2021/05/28 07:47:03;;;;;;;9.00;5.80;;;;;;;25.69;40.78;93643.50;4974149;28;20038;-83
2021/05/28 07:49:29;;;;;;;10.93;5.63;;;;;;;25.32;41.55;93622.97;4975336;28;20520;-86
2021/05/28 07:51:57;;;;;;;6.53;5.28;;;;;;;24.98;42.59;93648.78;4969573;28;20116;-89
2021/05/28 07:54:22;;;;;;;8.27;5.25;;;;;;;24.83;42.85;93633.66;4967899;28;20173;-86
2021/05/28 07:56:48;;;;;;;5.38;4.80;;;;;;;24.40;43.46;93635.41;4957102;28;20160;-86
2021/05/28 07:59:13;;;;;;;5.55;5.05;;;;;;;24.29;44.08;93640.00;4975370;28;20105;-85
2021/05/28 08:01:39;;;;;;;5.40;4.93;;;;;;;23.51;45.96;93653.72;4975495;28;20027;-83
2021/05/28 08:04:05;;;;;;;6.97;5.70;;;;;;;23.47;46.87;93666.38;4978686;28;20490;-84
2021/05/28 08:06:30;;;;;;;7.28;5.70;;;;;;;23.33;47.14;93653.53;4948031;28;20050;-85
2021/05/28 08:08:56;;;;;;;6.55;5.57;;;;;;;23.17;47.50;93660.28;4954891;28;20517;-82
2021/05/28 08:11:21;;;;;;;8.48;5.55;;;;;;;22.63;48.39;93669.69;4972931;28;20053;-83
2021/05/28 08:13:47;;;;;;;10.10;5.97;;;;;;;22.35;49.30;93658.56;4953791;28;20046;-82
2021/05/28 08:16:14;;;;;;;7.32;6.50;;;;;;;22.42;49.95;93670.22;4975432;28;20105;-82
2021/05/28 08:18:39;;;;;;;8.93;5.65;;;;;;;22.71;49.58;93662.53;4974273;28;20065;-83
2021/05/28 08:21:06;;;;;;;6.50;5.22;;;;;;;22.37;50.39;93667.06;4973052;28;20503;-82
2021/05/28 08:23:32;;;;;;;7.90;5.45;;;;;;;22.40;51.81;93687.88;4957890;28;20047;-82
2021/05/28 08:25:58;;;;;;;7.18;6.47;;;;;;;22.04;54.18;93681.22;4973862;28;20062;-83
2021/05/28 08:28:24;;;;;;;11.85;8.65;;;;;;;21.52;55.66;93692.69;4954745;28;20387;-82
2021/05/28 08:30:49;;;;;;;10.68;9.57;;;;;;;20.89;57.03;93713.78;4972617;28;20038;-81
2021/05/28 08:33:16;;;;;;;14.02;11.90;;;;;;;20.00;59.20;93727.22;4971887;28;20547;-84
2021/05/28 08:35:43;;;;;;;15.13;11.93;;;;;;;19.78;60.34;93736.69;4973584;28;20525;-83
2021/05/28 08:38:08;;;;;;;26.75;13.02;;;;;;;19.40;60.31;93738.03;4974080;28;20038;-82
2021/05/28 08:40:34;;;;;;;21.05;16.77;;;;;;;19.07;60.70;93742.91;4973312;28;20026;-81
2021/05/28 08:43:05;;;;;;;19.55;15.77;;;;;;;18.78;60.18;93748.59;4959752;28;20018;-83
2021/05/28 08:45:37;;;;;;;19.95;16.80;;;;;;;18.71;60.82;93745.75;4958266;28;20043;-84
2021/05/28 08:48:07;;;;;;;19.00;17.15;;;;;;;18.62;61.33;93747.78;4968050;28;20088;-82
2021/05/28 08:50:34;;;;;;;19.30;17.58;;;;;;;18.15;62.30;93757.09;4970868;28;20042;-81
2021/05/28 08:53:06;;;;;;;21.33;17.85;;;;;;;18.07;63.97;93754.56;4973155;28;20042;-83
2021/05/28 08:55:32;;;;;;;19.70;17.60;;;;;;;17.85;64.05;93777.16;4957416;28;20045;-86
2021/05/28 08:58:01;;;;;;;20.88;17.33;;;;;;;17.72;64.49;93752.31;4974589;28;20045;-83
2021/05/28 09:00:28;;;;;;;18.73;16.83;;;;;;;17.63;64.98;93766.91;4971837;28;20960;-85
2021/05/28 09:02:53;;;;;;;18.13;16.27;;;;;;;17.62;66.03;93763.47;4951506;28;20137;-80
2021/05/28 09:05:23;;;;;;;17.25;15.45;;;;;;;17.75;65.95;93765.00;4964139;28;20038;-87
2021/05/28 09:07:56;;;;;;;15.63;14.07;;;;;;;17.63;66.02;93799.75;4972187;28;20116;-83
2021/05/28 09:10:39;;;;;;;17.67;15.02;;;;;;;17.58;66.82;93789.25;4955684;28;20039;-84
2021/05/28 09:13:21;;;;;;;16.40;14.90;;;;;;;17.30;66.55;93761.56;4950668;28;20053;-83
2021/05/28 09:15:50;;;;;;;15.10;13.75;;;;;;;17.30;65.41;93790.97;4965669;28;20048;-85
2021/05/28 09:18:16;;;;;;;16.50;14.77;;;;;;;17.35;66.42;93792.66;4970318;28;20070;-85
2021/05/28 09:20:54;;;;;;;16.58;14.93;;;;;;;17.41;65.55;93776.06;4970340;28;21066;-83
2021/05/28 09:23:20;;;;;;;16.50;14.90;;;;;;;17.61;64.64;93812.66;4963037;28;20068;-83
2021/05/28 09:26:04;;;;;;;16.27;14.20;;;;;;;17.70;65.63;93799.97;4970484;28;20559;-83
2021/05/28 09:28:50;;;;;;;15.48;13.95;;;;;;;17.66;64.43;93796.41;4954506;28;20094;-82
2021/05/28 09:31:18;;;;;;;15.30;13.82;;;;;;;17.69;65.05;93822.47;4953690;28;21092;-84
2021/05/28 09:33:47;;;;;;;15.45;13.95;;;;;;;17.54;65.54;93809.75;4953345;28;20519;-84
2021/05/28 09:36:17;;;;;;;14.63;13.30;;;;;;;17.66;65.05;93815.13;4954799;28;20435;-83
2021/05/28 09:39:05;;;;;;;14.68;13.35;;;;;;;17.70;65.79;93813.34;4943134;28;20055;-84
2021/05/28 09:41:34;;;;;;;16.27;14.20;;;;;;;17.67;66.22;93814.00;4973352;28;20153;-90
2021/05/28 09:44:14;;;;;;;14.93;13.35;;;;;;;17.63;65.85;93807.78;4965770;28;20050;-86
2021/05/28 09:46:59;;;;;;;15.30;13.80;;;;;;;17.62;66.26;93805.44;4954385;28;20027;-89
2021/05/28 09:49:26;;;;;;;17.30;15.60;;;;;;;17.74;67.96;93802.75;4952146;28;20142;-89
2021/05/28 09:52:15;;;;;;;14.95;13.45;;;;;;;17.91;67.80;93812.47;4954055;28;20117;-87
2021/05/28 09:54:52;;;;;;;19.52;15.77;;;;;;;17.70;67.30;93789.28;4967494;28;20039;-88
2021/05/28 09:57:41;;;;;;;17.65;15.85;;;;;;;17.88;68.28;93810.47;4952427;28;20074;-87
2021/05/28 10:00:09;;;;;;;16.00;14.30;;;;;;;17.69;67.60;93803.75;4951797;28;20193;-87
2021/05/28 10:02:43;;;;;;;16.30;14.65;;;;;;;17.69;67.04;93793.06;4952466;28;20042;-90
2021/05/28 10:05:10;;;;;;;15.55;14.13;;;;;;;17.65;67.35;93794.84;4978397;28;20052;-88
2021/05/28 10:07:37;;;;;;;14.43;9.65;;;;;;;17.38;65.41;93794.66;4976455;28;20030;-86
2021/05/28 10:10:04;;;;;;;13.75;12.38;;;;;;;17.24;67.17;93757.56;4977856;28;20027;-87
2021/05/28 10:12:30;;;;;;;11.75;10.75;;;;;;;17.55;66.31;93805.94;4957041;28;20137;-87
2021/05/28 10:14:56;;;;;;;8.45;7.65;;;;;;;16.93;64.75;93791.94;4957621;28;20041;-85
2021/05/28 10:17:21;;;;;;;6.85;6.25;;;;;;;16.89;65.14;93802.50;4962375;28;20048;-87
2021/05/28 10:19:49;;;;;;;6.82;5.78;;;;;;;16.67;65.94;93803.63;4975775;28;20133;-84
2021/05/28 10:22:17;;;;;;;8.75;6.32;;;;;;;16.63;67.66;93808.03;4976378;28;20478;-88
2021/05/28 10:24:44;;;;;;;6.45;5.85;;;;;;;16.36;66.35;93808.53;4954434;28;20073;-89
2021/05/28 10:27:11;;;;;;;6.20;5.60;;;;;;;15.98;68.26;93812.03;4954823;28;20046;-87
2021/05/28 10:29:39;;;;;;;7.13;6.03;;;;;;;16.03;68.66;93813.72;4953553;28;20050;-88
2021/05/28 10:32:12;;;;;;;6.95;6.25;;;;;;;16.01;69.67;93797.28;4957874;28;20051;-86
2021/05/28 10:35:09;;;;;;;8.57;6.20;;;;;;;15.42;69.43;93754.56;4972379;28;20673;-91
2021/05/28 10:37:35;;;;;;;7.30;6.70;;;;;;;15.65;70.53;93784.44;4966858;28;20504;-88
2021/05/28 10:40:01;;;;;;;8.57;7.68;;;;;;;15.62;71.01;93794.97;4959130;28;20038;-89
2021/05/28 10:42:27;;;;;;;8.45;7.63;;;;;;;15.93;71.11;93814.88;4959499;28;20038;-87
2021/05/28 10:44:52;;;;;;;9.15;6.22;;;;;;;15.96;69.95;93794.81;4968178;28;20507;-92
2021/05/28 10:47:19;;;;;;;6.70;6.05;;;;;;;15.97;70.25;93805.16;4972894;28;20455;-88
2021/05/28 10:49:52;;;;;;;7.25;5.18;;;;;;;16.08;70.43;93810.88;4971596;28;20035;-87
2021/05/28 10:52:31;;;;;;;7.88;7.07;;;;;;;16.02;69.19;93826.28;4956784;28;20026;-87
2021/05/28 10:55:07;;;;;;;7.90;7.15;;;;;;;16.04;70.44;93828.63;4977321;28;20519;-88
2021/05/28 10:57:35;;;;;;;8.75;7.95;;;;;;;16.00;69.41;93827.69;4977088;28;20120;-88
2021/05/28 11:00:06;;;;;;;8.68;7.88;;;;;;;16.08;70.43;93829.53;4959611;28;20130;-88
2021/05/28 11:02:54;;;;;;;9.77;8.77;;;;;;;16.20;70.71;93820.84;4953113;28;20047;-88
2021/05/28 11:05:41;;;;;;;10.82;9.82;;;;;;;16.34;72.10;93829.41;4970749;28;20508;-86
2021/05/28 11:08:36;;;;;;;11.07;10.02;;;;;;;16.51;71.44;93825.84;4936671;28;20081;-85
2021/05/28 11:11:03;;;;;;;11.05;9.88;;;;;;;16.44;70.03;93818.34;4968275;28;20065;-86
2021/05/28 11:13:28;;;;;;;10.35;9.45;;;;;;;16.56;70.45;93815.00;4978618;28;20026;-87
2021/05/28 11:15:58;;;;;;;10.68;9.70;;;;;;;16.65;70.23;93808.50;4976681;28;20542;-86
2021/05/28 11:18:31;;;;;;;10.63;9.40;;;;;;;16.81;70.76;93817.47;4972865;28;20408;-85
2021/05/28 11:21:17;;;;;;;9.27;8.43;;;;;;;16.85;70.44;93820.28;4977232;28;20516;-89
2021/05/28 11:23:49;;;;;;;9.50;8.32;;;;;;;16.78;69.85;93799.44;4972454;28;20096;-88
2021/05/28 11:26:38;;;;;;;8.43;7.68;;;;;;;16.71;69.28;93793.09;4961428;28;20045;-87
2021/05/28 11:29:03;;;;;;;10.73;9.77;;;;;;;16.70;68.32;93820.88;4974482;28;20049;-83